sensor_id;sensor_type;location;lat;lon;timestamp;pressure;altitude;pressure_sealevel;temperature;humidity
20160;BME280;50187;50.492;12.134;2023-05-09T00:00:40;98094.53;;;21.16;37.21
20160;BME280;50187;50.492;12.134;2023-05-09T00:03:08;98107.31;;;21.24;37.10
20160;BME280;50187;50.492;12.134;2023-05-09T00:05:34;98104.06;;;21.20;37.07
20160;BME280;50187;50.492;12.134;2023-05-09T00:08:01;98086.97;;;21.20;37.25
20160;BME280;50187;50.492;12.134;2023-05-09T00:10:27;98091.25;;;21.22;37.16
20160;BME280;50187;50.492;12.134;2023-05-09T00:12:54;98092.22;;;21.21;37.16
20160;BME280;50187;50.492;12.134;2023-05-09T00:15:21;98093.56;;;21.17;37.19
20160;BME280;50187;50.492;12.134;2023-05-09T00:17:47;98092.56;;;21.18;37.28
20160;BME280;50187;50.492;12.134;2023-05-09T00:20:16;98090.00;;;21.17;37.05
20160;BME280;50187;50.492;12.134;2023-05-09T00:22:42;98091.69;;;21.18;37.17
20160;BME280;50187;50.492;12.134;2023-05-09T00:25:10;98081.88;;;21.17;37.17
20160;BME280;50187;50.492;12.134;2023-05-09T00:27:37;98071.44;;;21.22;37.26
20160;BME280;50187;50.492;12.134;2023-05-09T00:30:04;98077.72;;;21.22;37.02
20160;BME280;50187;50.492;12.134;2023-05-09T00:32:32;98081.25;;;21.23;37.21
20160;BME280;50187;50.492;12.134;2023-05-09T00:34:59;98071.06;;;21.17;37.19
20160;BME280;50187;50.492;12.134;2023-05-09T00:37:25;98061.09;;;21.17;37.09
20160;BME280;50187;50.492;12.134;2023-05-09T00:39:52;98071.59;;;21.20;37.12
20160;BME280;50187;50.492;12.134;2023-05-09T00:42:18;98072.59;;;21.19;37.33
20160;BME280;50187;50.492;12.134;2023-05-09T00:44:45;98071.91;;;21.17;37.14
20160;BME280;50187;50.492;12.134;2023-05-09T00:47:12;98072.59;;;21.19;37.11
20160;BME280;50187;50.492;12.134;2023-05-09T00:49:38;98076.47;;;21.17;37.08
20160;BME280;50187;50.492;12.134;2023-05-09T00:52:05;98048.56;;;21.16;37.25
20160;BME280;50187;50.492;12.134;2023-05-09T00:54:31;98057.69;;;21.15;37.10
20160;BME280;50187;50.492;12.134;2023-05-09T00:56:58;98064.47;;;21.19;37.11
20160;BME280;50187;50.492;12.134;2023-05-09T00:59:26;98070.19;;;21.16;37.02
20160;BME280;50187;50.492;12.134;2023-05-09T01:01:52;98032.47;;;21.15;37.05
20160;BME280;50187;50.492;12.134;2023-05-09T01:04:19;98051.97;;;21.18;36.95
20160;BME280;50187;50.492;12.134;2023-05-09T01:07:24;98041.00;;;21.20;36.92
20160;BME280;50187;50.492;12.134;2023-05-09T01:10:03;98035.75;;;21.18;36.93
20160;BME280;50187;50.492;12.134;2023-05-09T01:13:03;98050.59;;;21.14;37.04
20160;BME280;50187;50.492;12.134;2023-05-09T01:18:21;98040.44;;;21.16;37.10
20160;BME280;50187;50.492;12.134;2023-05-09T01:21:10;98034.88;;;21.18;36.98
20160;BME280;50187;50.492;12.134;2023-05-09T01:26:40;98031.47;;;21.16;37.05
20160;BME280;50187;50.492;12.134;2023-05-09T01:29:33;98037.41;;;21.19;36.94
20160;BME280;50187;50.492;12.134;2023-05-09T01:32:07;98042.31;;;21.16;36.95
20160;BME280;50187;50.492;12.134;2023-05-09T01:34:37;98022.00;;;21.12;37.13
20160;BME280;50187;50.492;12.134;2023-05-09T01:37:05;98039.75;;;21.14;37.09
20160;BME280;50187;50.492;12.134;2023-05-09T01:39:33;98034.88;;;21.18;37.18
20160;BME280;50187;50.492;12.134;2023-05-09T01:42:02;98036.50;;;21.10;37.09
20160;BME280;50187;50.492;12.134;2023-05-09T01:44:34;98037.22;;;21.13;37.07
20160;BME280;50187;50.492;12.134;2023-05-09T01:47:04;98036.34;;;21.12;36.99
20160;BME280;50187;50.492;12.134;2023-05-09T01:49:34;98048.88;;;21.13;37.15
20160;BME280;50187;50.492;12.134;2023-05-09T01:52:06;98044.19;;;21.15;37.02
20160;BME280;50187;50.492;12.134;2023-05-09T01:54:34;98037.06;;;21.14;37.16
20160;BME280;50187;50.492;12.134;2023-05-09T01:57:03;98037.91;;;21.15;36.93
20160;BME280;50187;50.492;12.134;2023-05-09T01:59:32;98020.75;;;21.06;37.16
20160;BME280;50187;50.492;12.134;2023-05-09T02:02:01;98028.94;;;21.14;36.93
20160;BME280;50187;50.492;12.134;2023-05-09T02:04:29;98023.38;;;21.16;36.91
20160;BME280;50187;50.492;12.134;2023-05-09T02:06:56;98031.47;;;21.16;37.12
20160;BME280;50187;50.492;12.134;2023-05-09T02:09:24;98028.94;;;21.14;37.24
20160;BME280;50187;50.492;12.134;2023-05-09T02:11:51;98014.72;;;21.12;37.05
20160;BME280;50187;50.492;12.134;2023-05-09T02:14:18;98010.69;;;21.16;36.85
20160;BME280;50187;50.492;12.134;2023-05-09T02:16:44;98029.47;;;21.18;36.82
20160;BME280;50187;50.492;12.134;2023-05-09T02:19:11;98013.56;;;21.15;36.88
20160;BME280;50187;50.492;12.134;2023-05-09T02:21:37;98012.88;;;21.13;36.97
20160;BME280;50187;50.492;12.134;2023-05-09T02:24:04;98025.06;;;21.17;36.99
20160;BME280;50187;50.492;12.134;2023-05-09T02:26:32;98021.50;;;21.16;36.93
20160;BME280;50187;50.492;12.134;2023-05-09T02:28:59;98023.84;;;21.11;36.98
20160;BME280;50187;50.492;12.134;2023-05-09T02:31:29;98020.66;;;21.16;37.01
20160;BME280;50187;50.492;12.134;2023-05-09T02:33:58;98034.69;;;21.11;37.10
20160;BME280;50187;50.492;12.134;2023-05-09T02:36:25;98026.56;;;21.11;36.98
20160;BME280;50187;50.492;12.134;2023-05-09T02:38:51;98013.03;;;21.11;36.87
20160;BME280;50187;50.492;12.134;2023-05-09T02:41:18;98021.00;;;21.13;36.99
20160;BME280;50187;50.492;12.134;2023-05-09T02:43:46;98011.00;;;21.13;36.88
20160;BME280;50187;50.492;12.134;2023-05-09T02:46:14;98012.31;;;21.09;37.09
20160;BME280;50187;50.492;12.134;2023-05-09T02:48:41;98012.00;;;21.12;37.03
20160;BME280;50187;50.492;12.134;2023-05-09T02:51:07;98010.31;;;21.11;37.04
20160;BME280;50187;50.492;12.134;2023-05-09T02:53:34;97995.72;;;21.04;36.99
20160;BME280;50187;50.492;12.134;2023-05-09T02:56:00;98008.47;;;21.12;37.09
20160;BME280;50187;50.492;12.134;2023-05-09T02:58:27;97993.72;;;21.06;36.95
20160;BME280;50187;50.492;12.134;2023-05-09T03:00:53;98010.69;;;21.16;36.93
20160;BME280;50187;50.492;12.134;2023-05-09T03:03:20;98018.97;;;21.15;36.98
20160;BME280;50187;50.492;12.134;2023-05-09T03:05:49;98013.72;;;21.13;37.11
20160;BME280;50187;50.492;12.134;2023-05-09T03:08:15;98005.59;;;21.13;37.02
20160;BME280;50187;50.492;12.134;2023-05-09T03:10:43;97995.78;;;21.12;36.99
20160;BME280;50187;50.492;12.134;2023-05-09T03:13:09;98004.75;;;21.13;36.85
20160;BME280;50187;50.492;12.134;2023-05-09T03:15:36;98011.84;;;21.14;36.95
20160;BME280;50187;50.492;12.134;2023-05-09T03:18:04;98007.63;;;21.11;36.90
20160;BME280;50187;50.492;12.134;2023-05-09T03:20:30;97998.47;;;21.12;37.02
20160;BME280;50187;50.492;12.134;2023-05-09T03:22:57;98016.03;;;21.08;36.83
20160;BME280;50187;50.492;12.134;2023-05-09T03:25:24;97990.00;;;21.07;36.97
20160;BME280;50187;50.492;12.134;2023-05-09T03:27:51;97987.97;;;21.09;36.86
20160;BME280;50187;50.492;12.134;2023-05-09T03:30:18;97994.78;;;21.13;36.98
20160;BME280;50187;50.492;12.134;2023-05-09T03:32:47;98004.75;;;21.13;37.07
20160;BME280;50187;50.492;12.134;2023-05-09T03:35:13;98002.38;;;21.09;36.94
20160;BME280;50187;50.492;12.134;2023-05-09T03:37:40;97995.78;;;21.12;37.05
20160;BME280;50187;50.492;12.134;2023-05-09T03:40:08;98005.59;;;21.13;36.94
20160;BME280;50187;50.492;12.134;2023-05-09T03:42:41;98020.13;;;21.12;36.89
20160;BME280;50187;50.492;12.134;2023-05-09T03:45:08;97990.69;;;21.09;36.93
20160;BME280;50187;50.492;12.134;2023-05-09T03:47:35;97983.56;;;21.08;36.83
20160;BME280;50187;50.492;12.134;2023-05-09T03:50:02;98000.19;;;21.13;36.99
20160;BME280;50187;50.492;12.134;2023-05-09T03:52:30;98018.44;;;21.11;36.82
20160;BME280;50187;50.492;12.134;2023-05-09T03:54:57;98004.91;;;21.11;36.96
20160;BME280;50187;50.492;12.134;2023-05-09T03:57:23;98005.91;;;21.10;37.06
20160;BME280;50187;50.492;12.134;2023-05-09T03:59:52;98013.72;;;21.13;36.94
20160;BME280;50187;50.492;12.134;2023-05-09T04:02:19;98017.25;;;21.14;36.86
20160;BME280;50187;50.492;12.134;2023-05-09T04:04:46;98000.84;;;21.07;37.03
20160;BME280;50187;50.492;12.134;2023-05-09T04:07:16;97987.59;;;21.04;36.97
20160;BME280;50187;50.492;12.134;2023-05-09T04:09:45;98002.50;;;21.08;36.88
20160;BME280;50187;50.492;12.134;2023-05-09T04:12:12;98011.31;;;21.10;36.99
20160;BME280;50187;50.492;12.134;2023-05-09T04:14:38;98002.50;;;21.08;36.94
20160;BME280;50187;50.492;12.134;2023-05-09T04:17:05;97998.41;;;21.04;36.96
20160;BME280;50187;50.492;12.134;2023-05-09T04:19:32;98005.59;;;21.13;37.01
20160;BME280;50187;50.492;12.134;2023-05-09T04:21:58;98014.34;;;21.07;37.01
20160;BME280;50187;50.492;12.134;2023-05-09T04:24:25;98005.22;;;21.08;36.83
20160;BME280;50187;50.492;12.134;2023-05-09T04:26:51;97992.00;;;21.05;37.02
20160;BME280;50187;50.492;12.134;2023-05-09T04:29:21;97996.97;;;21.09;36.93
20160;BME280;50187;50.492;12.134;2023-05-09T04:31:52;97985.75;;;21.04;36.79
20160;BME280;50187;50.492;12.134;2023-05-09T04:34:21;98003.22;;;21.10;36.91
20160;BME280;50187;50.492;12.134;2023-05-09T04:36:48;98006.75;;;21.10;36.86
20160;BME280;50187;50.492;12.134;2023-05-09T04:39:15;97991.16;;;21.04;36.97
20160;BME280;50187;50.492;12.134;2023-05-09T04:41:50;97998.47;;;21.12;37.02
20160;BME280;50187;50.492;12.134;2023-05-09T04:44:17;98013.88;;;21.12;36.99
20160;BME280;50187;50.492;12.134;2023-05-09T04:46:44;97990.00;;;21.07;36.99
20160;BME280;50187;50.492;12.134;2023-05-09T04:49:11;98000.50;;;21.10;37.05
20160;BME280;50187;50.492;12.134;2023-05-09T04:51:37;98000.34;;;21.12;36.88
20160;BME280;50187;50.492;12.134;2023-05-09T04:54:03;97986.44;;;21.06;36.78
20160;BME280;50187;50.492;12.134;2023-05-09T04:56:33;97988.84;;;21.09;36.87
20160;BME280;50187;50.492;12.134;2023-05-09T04:59:00;97990.69;;;21.09;37.05
20160;BME280;50187;50.492;12.134;2023-05-09T05:01:27;97980.88;;;21.08;36.97
20160;BME280;50187;50.492;12.134;2023-05-09T05:03:54;97972.63;;;21.09;36.93
20160;BME280;50187;50.492;12.134;2023-05-09T05:06:21;97972.28;;;21.13;36.82
20160;BME280;50187;50.492;12.134;2023-05-09T05:08:47;97991.59;;;21.18;36.94
20160;BME280;50187;50.492;12.134;2023-05-09T05:11:14;97987.03;;;21.18;36.87
20160;BME280;50187;50.492;12.134;2023-05-09T05:13:43;97981.63;;;21.18;36.76
20160;BME280;50187;50.492;12.134;2023-05-09T05:16:10;97972.47;;;21.19;36.88
20160;BME280;50187;50.492;12.134;2023-05-09T05:18:36;97991.59;;;21.18;36.82
20160;BME280;50187;50.492;12.134;2023-05-09T05:21:04;97964.69;;;21.16;37.02
20160;BME280;50187;50.492;12.134;2023-05-09T05:23:30;97977.44;;;21.24;36.69
20160;BME280;50187;50.492;12.134;2023-05-09T05:25:57;97982.53;;;21.27;36.90
20160;BME280;50187;50.492;12.134;2023-05-09T05:28:23;97969.50;;;21.31;36.83
20160;BME280;50187;50.492;12.134;2023-05-09T05:30:50;97977.50;;;21.32;36.74
20160;BME280;50187;50.492;12.134;2023-05-09T05:33:17;97969.84;;;21.27;36.51
20160;BME280;50187;50.492;12.134;2023-05-09T05:35:43;97979.34;;;21.32;36.65
20160;BME280;50187;50.492;12.134;2023-05-09T05:38:10;97972.91;;;21.33;36.74
20160;BME280;50187;50.492;12.134;2023-05-09T05:40:37;97979.16;;;21.33;36.59
20160;BME280;50187;50.492;12.134;2023-05-09T05:43:05;97964.09;;;21.31;36.59
20160;BME280;50187;50.492;12.134;2023-05-09T05:45:33;97964.47;;;21.36;36.61
20160;BME280;50187;50.492;12.134;2023-05-09T05:48:02;97969.88;;;21.36;36.65
20160;BME280;50187;50.492;12.134;2023-05-09T05:50:31;97953.28;;;21.31;36.83
20160;BME280;50187;50.492;12.134;2023-05-09T05:52:58;97952.97;;;21.34;36.50
20160;BME280;50187;50.492;12.134;2023-05-09T05:55:25;97958.22;;;21.35;36.73
20160;BME280;50187;50.492;12.134;2023-05-09T05:57:52;97945.03;;;21.32;36.52
20160;BME280;50187;50.492;12.134;2023-05-09T06:00:18;97958.38;;;21.34;36.55
20160;BME280;50187;50.492;12.134;2023-05-09T06:02:52;97962.78;;;21.35;36.56
20160;BME280;50187;50.492;12.134;2023-05-09T06:05:27;97936.75;;;21.34;36.56
20160;BME280;50187;50.492;12.134;2023-05-09T06:07:53;97947.06;;;21.38;36.65
20160;BME280;50187;50.492;12.134;2023-05-09T06:10:20;97950.63;;;21.39;36.60
20160;BME280;50187;50.492;12.134;2023-05-09T06:12:46;97943.53;;;21.38;36.46
20160;BME280;50187;50.492;12.134;2023-05-09T06:15:13;97949.63;;;21.40;36.57
20160;BME280;50187;50.492;12.134;2023-05-09T06:17:43;97946.91;;;21.40;36.52
20160;BME280;50187;50.492;12.134;2023-05-09T06:20:10;97940.13;;;21.36;36.50
20160;BME280;50187;50.492;12.134;2023-05-09T06:22:36;97941.16;;;21.43;36.62
20160;BME280;50187;50.492;12.134;2023-05-09T06:25:03;97906.88;;;21.17;36.50
20160;BME280;50187;50.492;12.134;2023-05-09T06:27:30;97948.44;;;21.42;36.51
20160;BME280;50187;50.492;12.134;2023-05-09T06:29:56;97938.63;;;21.41;36.49
20160;BME280;50187;50.492;12.134;2023-05-09T06:32:23;97937.63;;;21.42;36.49
20160;BME280;50187;50.492;12.134;2023-05-09T06:34:50;97928.47;;;21.35;36.52
20160;BME280;50187;50.492;12.134;2023-05-09T06:37:17;97939.16;;;21.45;36.56
20160;BME280;50187;50.492;12.134;2023-05-09T06:39:44;97924.72;;;21.36;36.45
20160;BME280;50187;50.492;12.134;2023-05-09T06:42:10;97943.41;;;21.48;36.58
20160;BME280;50187;50.492;12.134;2023-05-09T06:44:38;97941.72;;;21.47;36.49
20160;BME280;50187;50.492;12.134;2023-05-09T06:47:04;97943.91;;;21.51;36.38
20160;BME280;50187;50.492;12.134;2023-05-09T06:49:31;97914.66;;;21.47;36.43
20160;BME280;50187;50.492;12.134;2023-05-09T06:51:57;97911.78;;;21.48;36.24
20160;BME280;50187;50.492;12.134;2023-05-09T06:54:24;97899.06;;;21.49;36.49
20160;BME280;50187;50.492;12.134;2023-05-09T06:56:50;97909.72;;;21.50;36.40
20160;BME280;50187;50.492;12.134;2023-05-09T06:59:17;97896.38;;;21.49;36.32
20160;BME280;50187;50.492;12.134;2023-05-09T07:01:43;97903.72;;;21.56;36.39
20160;BME280;50187;50.492;12.134;2023-05-09T07:04:10;97920.47;;;21.60;36.29
20160;BME280;50187;50.492;12.134;2023-05-09T07:06:36;97882.91;;;21.57;36.35
20160;BME280;50187;50.492;12.134;2023-05-09T07:09:03;97881.19;;;21.56;36.39
20160;BME280;50187;50.492;12.134;2023-05-09T07:11:34;97887.16;;;21.59;36.24
20160;BME280;50187;50.492;12.134;2023-05-09T07:14:02;97880.22;;;21.65;36.42
20160;BME280;50187;50.492;12.134;2023-05-09T07:16:28;97875.66;;;21.66;36.37
20160;BME280;50187;50.492;12.134;2023-05-09T07:18:55;97893.59;;;21.67;36.21
20160;BME280;50187;50.492;12.134;2023-05-09T07:21:22;97873.63;;;21.68;36.06
20160;BME280;50187;50.492;12.134;2023-05-09T07:23:48;97886.66;;;21.72;36.18
20160;BME280;50187;50.492;12.134;2023-05-09T07:26:15;97874.13;;;21.71;36.15
20160;BME280;50187;50.492;12.134;2023-05-09T07:28:41;97866.00;;;21.71;36.18
20160;BME280;50187;50.492;12.134;2023-05-09T07:31:08;97878.41;;;21.82;35.93
20160;BME280;50187;50.492;12.134;2023-05-09T07:33:34;97870.81;;;21.86;35.98
20160;BME280;50187;50.492;12.134;2023-05-09T07:36:01;97863.19;;;21.89;35.90
20160;BME280;50187;50.492;12.134;2023-05-09T07:38:28;97855.75;;;21.91;35.92
20160;BME280;50187;50.492;12.134;2023-05-09T07:40:54;97845.94;;;21.90;35.95
20160;BME280;50187;50.492;12.134;2023-05-09T07:43:21;97849.81;;;21.96;35.82
20160;BME280;50187;50.492;12.134;2023-05-09T07:45:47;97853.19;;;21.98;35.76
20160;BME280;50187;50.492;12.134;2023-05-09T07:48:14;97834.59;;;22.03;35.96
20160;BME280;50187;50.492;12.134;2023-05-09T07:50:40;97824.78;;;22.02;35.74
20160;BME280;50187;50.492;12.134;2023-05-09T07:53:07;97826.28;;;21.96;35.77
20160;BME280;50187;50.492;12.134;2023-05-09T07:55:33;97823.75;;;21.95;35.96
20160;BME280;50187;50.492;12.134;2023-05-09T07:58:00;97840.69;;;21.97;35.91
20160;BME280;50187;50.492;12.134;2023-05-09T08:00:26;97813.25;;;21.92;35.91
20160;BME280;50187;50.492;12.134;2023-05-09T08:02:53;97822.94;;;22.03;35.95
20160;BME280;50187;50.492;12.134;2023-05-09T08:05:19;97830.03;;;22.12;35.80
20160;BME280;50187;50.492;12.134;2023-05-09T08:07:46;97820.38;;;22.18;35.66
20160;BME280;50187;50.492;12.134;2023-05-09T08:10:13;97799.88;;;22.15;35.73
20160;BME280;50187;50.492;12.134;2023-05-09T08:12:39;97810.72;;;22.15;35.57
20160;BME280;50187;50.492;12.134;2023-05-09T08:15:06;97810.53;;;22.25;35.53
20160;BME280;50187;50.492;12.134;2023-05-09T08:17:33;97818.84;;;22.32;35.55
20160;BME280;50187;50.492;12.134;2023-05-09T08:19:59;97801.75;;;22.31;35.57
20160;BME280;50187;50.492;12.134;2023-05-09T08:22:26;97822.13;;;22.35;35.39
20160;BME280;50187;50.492;12.134;2023-05-09T08:24:52;97802.09;;;22.36;35.36
20160;BME280;50187;50.492;12.134;2023-05-09T08:27:18;97778.19;;;22.32;35.45
20160;BME280;50187;50.492;12.134;2023-05-09T08:29:45;97785.19;;;22.34;35.16
20160;BME280;50187;50.492;12.134;2023-05-09T08:32:11;97787.00;;;22.42;35.29
20160;BME280;50187;50.492;12.134;2023-05-09T08:34:38;97793.78;;;22.46;35.26
20160;BME280;50187;50.492;12.134;2023-05-09T08:37:04;97798.19;;;22.47;35.19
20160;BME280;50187;50.492;12.134;2023-05-09T08:39:31;97789.06;;;22.48;35.08
20160;BME280;50187;50.492;12.134;2023-05-09T08:42:00;97781.22;;;22.53;35.15
20160;BME280;50187;50.492;12.134;2023-05-09T08:44:29;97776.16;;;22.58;34.88
20160;BME280;50187;50.492;12.134;2023-05-09T08:47:00;97775.31;;;22.58;34.96
20160;BME280;50187;50.492;12.134;2023-05-09T08:49:28;97781.91;;;22.63;35.01
20160;BME280;50187;50.492;12.134;2023-05-09T08:51:55;97754.09;;;22.61;35.01
20160;BME280;50187;50.492;12.134;2023-05-09T08:54:22;97761.56;;;22.68;34.71
20160;BME280;50187;50.492;12.134;2023-05-09T08:56:49;97764.75;;;22.71;35.03
20160;BME280;50187;50.492;12.134;2023-05-09T08:59:17;97759.16;;;22.73;34.78
20160;BME280;50187;50.492;12.134;2023-05-09T09:01:44;97763.56;;;22.74;34.92
20160;BME280;50187;50.492;12.134;2023-05-09T09:04:11;97785.91;;;22.76;34.90
20160;BME280;50187;50.492;12.134;2023-05-09T09:06:38;97778.84;;;22.67;34.90
20160;BME280;50187;50.492;12.134;2023-05-09T09:09:07;97761.88;;;22.73;34.62
20160;BME280;50187;50.492;12.134;2023-05-09T09:11:35;97737.63;;;22.71;34.56
20160;BME280;50187;50.492;12.134;2023-05-09T09:14:11;97751.31;;;22.86;34.81
20160;BME280;50187;50.492;12.134;2023-05-09T09:16:40;97754.22;;;22.85;34.71
20160;BME280;50187;50.492;12.134;2023-05-09T09:19:12;97750.78;;;22.91;34.67
20160;BME280;50187;50.492;12.134;2023-05-09T09:21:40;97763.38;;;22.84;34.49
20160;BME280;50187;50.492;12.134;2023-05-09T09:24:08;97748.91;;;22.91;34.41
20160;BME280;50187;50.492;12.134;2023-05-09T09:26:44;97742.00;;;22.89;34.62
20160;BME280;50187;50.492;12.134;2023-05-09T09:29:12;97733.13;;;22.95;34.63
20160;BME280;50187;50.492;12.134;2023-05-09T09:31:43;97735.69;;;22.96;34.65
20160;BME280;50187;50.492;12.134;2023-05-09T09:34:11;97728.38;;;22.97;34.63
20160;BME280;50187;50.492;12.134;2023-05-09T09:36:37;97720.59;;;22.94;34.57
20160;BME280;50187;50.492;12.134;2023-05-09T09:39:04;97730.94;;;22.98;34.48
20160;BME280;50187;50.492;12.134;2023-05-09T09:41:37;97714.28;;;23.02;34.38
20160;BME280;50187;50.492;12.134;2023-05-09T09:44:11;97706.81;;;23.04;34.53
20160;BME280;50187;50.492;12.134;2023-05-09T09:46:53;97708.88;;;23.02;34.62
20160;BME280;50187;50.492;12.134;2023-05-09T09:49:22;97706.81;;;23.04;34.61
20160;BME280;50187;50.492;12.134;2023-05-09T09:51:57;97684.47;;;23.02;34.59
20160;BME280;50187;50.492;12.134;2023-05-09T09:54:27;97693.75;;;23.07;34.67
20160;BME280;50187;50.492;12.134;2023-05-09T09:56:54;97693.56;;;23.09;34.43
20160;BME280;50187;50.492;12.134;2023-05-09T09:59:23;97696.28;;;23.09;34.43
20160;BME280;50187;50.492;12.134;2023-05-09T10:01:59;97701.72;;;23.09;34.38
20160;BME280;50187;50.492;12.134;2023-05-09T10:04:40;97697.47;;;23.06;34.39
20160;BME280;50187;50.492;12.134;2023-05-09T10:07:09;97688.13;;;23.09;34.35
20160;BME280;50187;50.492;12.134;2023-05-09T10:09:40;97687.81;;;23.12;34.34
20160;BME280;50187;50.492;12.134;2023-05-09T10:12:07;97700.00;;;23.16;34.28
20160;BME280;50187;50.492;12.134;2023-05-09T10:14:36;97675.41;;;23.18;34.31
20160;BME280;50187;50.492;12.134;2023-05-09T10:17:04;97679.50;;;23.13;34.21
20160;BME280;50187;50.492;12.134;2023-05-09T10:19:31;97680.47;;;23.21;34.39
20160;BME280;50187;50.492;12.134;2023-05-09T10:22:04;97656.09;;;23.12;34.44
20160;BME280;50187;50.492;12.134;2023-05-09T10:24:50;97666.06;;;23.20;34.33
20160;BME280;50187;50.492;12.134;2023-05-09T10:27:26;97662.50;;;23.20;34.10
20160;BME280;50187;50.492;12.134;2023-05-09T10:30:01;97655.38;;;23.19;34.14
20160;BME280;50187;50.492;12.134;2023-05-09T10:32:56;97661.09;;;23.24;34.17
20160;BME280;50187;50.492;12.134;2023-05-09T10:35:26;97649.94;;;23.19;34.24
20160;BME280;50187;50.492;12.134;2023-05-09T10:37:55;97665.69;;;23.23;33.99
20160;BME280;50187;50.492;12.134;2023-05-09T10:40:22;97658.88;;;23.27;34.16
20160;BME280;50187;50.492;12.134;2023-05-09T10:42:49;97674.84;;;23.22;34.16
20160;BME280;50187;50.492;12.134;2023-05-09T10:45:16;97639.38;;;23.24;34.04
20160;BME280;50187;50.492;12.134;2023-05-09T10:47:43;97630.72;;;23.28;33.99
20160;BME280;50187;50.492;12.134;2023-05-09T10:50:11;97630.72;;;23.28;34.24
20160;BME280;50187;50.492;12.134;2023-05-09T10:55:53;97615.13;;;23.22;34.08
20160;BME280;50187;50.492;12.134;2023-05-09T10:58:28;97632.56;;;23.28;34.18
20160;BME280;50187;50.492;12.134;2023-05-09T11:00:57;97626.31;;;23.27;34.13
20160;BME280;50187;50.492;12.134;2023-05-09T11:03:25;97611.59;;;23.22;34.21
20160;BME280;50187;50.492;12.134;2023-05-09T11:05:54;97603.41;;;23.30;34.35
20160;BME280;50187;50.492;12.134;2023-05-09T11:08:27;97608.81;;;23.30;34.07
20160;BME280;50187;50.492;12.134;2023-05-09T11:10:56;97608.31;;;23.26;34.37
20160;BME280;50187;50.492;12.134;2023-05-09T11:13:24;97595.81;;;23.25;34.11
20160;BME280;50187;50.492;12.134;2023-05-09T11:18:30;97615.09;;;23.30;34.05
20160;BME280;50187;50.492;12.134;2023-05-09T11:20:58;97580.53;;;23.24;34.15
20160;BME280;50187;50.492;12.134;2023-05-09T11:23:26;97586.25;;;23.29;34.09
20160;BME280;50187;50.492;12.134;2023-05-09T11:26:03;97569.97;;;23.29;34.18
20160;BME280;50187;50.492;12.134;2023-05-09T11:28:32;97571.72;;;23.22;34.23
20160;BME280;50187;50.492;12.134;2023-05-09T11:31:18;97575.38;;;23.29;34.22
20160;BME280;50187;50.492;12.134;2023-05-09T11:33:46;97568.28;;;23.28;34.17
20160;BME280;50187;50.492;12.134;2023-05-09T11:36:27;97561.16;;;23.27;34.04
20160;BME280;50187;50.492;12.134;2023-05-09T11:39:06;97554.72;;;23.28;33.93
20160;BME280;50187;50.492;12.134;2023-05-09T11:41:42;97540.28;;;23.28;34.17
20160;BME280;50187;50.492;12.134;2023-05-09T11:44:13;97552.19;;;23.27;33.89
20160;BME280;50187;50.492;12.134;2023-05-09T11:46:41;97552.53;;;23.24;33.84
20160;BME280;50187;50.492;12.134;2023-05-09T11:49:08;97552.44;;;23.17;34.12
20160;BME280;50187;50.492;12.134;2023-05-09T11:51:38;97526.53;;;23.14;34.12
20160;BME280;50187;50.492;12.134;2023-05-09T11:54:06;97522.94;;;23.14;33.98
20160;BME280;50187;50.492;12.134;2023-05-09T11:56:37;97526.81;;;23.20;34.15
20160;BME280;50187;50.492;12.134;2023-05-09T11:59:05;97528.03;;;23.17;34.12
20160;BME280;50187;50.492;12.134;2023-05-09T12:01:32;97521.94;;;23.15;34.04
20160;BME280;50187;50.492;12.134;2023-05-09T12:04:01;97507.53;;;23.14;33.92
20160;BME280;50187;50.492;12.134;2023-05-09T12:06:28;97494.63;;;23.08;34.20
20160;BME280;50187;50.492;12.134;2023-05-09T12:08:55;97490.25;;;23.07;34.06
20160;BME280;50187;50.492;12.134;2023-05-09T12:11:23;97501.94;;;23.08;34.05
20160;BME280;50187;50.492;12.134;2023-05-09T12:13:51;97488.75;;;23.05;34.16
20160;BME280;50187;50.492;12.134;2023-05-09T12:16:18;97481.63;;;23.04;34.27
20160;BME280;50187;50.492;12.134;2023-05-09T12:18:48;97486.59;;;23.00;34.30
20160;BME280;50187;50.492;12.134;2023-05-09T12:21:16;97467.63;;;23.00;34.25
20160;BME280;50187;50.492;12.134;2023-05-09T12:23:43;97467.50;;;22.93;34.29
20160;BME280;50187;50.492;12.134;2023-05-09T12:26:09;97448.88;;;22.90;34.23
20160;BME280;50187;50.492;12.134;2023-05-09T12:28:36;97464.78;;;22.93;34.26
20160;BME280;50187;50.492;12.134;2023-05-09T12:31:03;97449.91;;;22.89;34.04
20160;BME280;50187;50.492;12.134;2023-05-09T12:33:30;97449.25;;;22.87;34.25
20160;BME280;50187;50.492;12.134;2023-05-09T12:36:08;97440.44;;;22.85;34.32
20160;BME280;50187;50.492;12.134;2023-05-09T12:38:36;97441.28;;;22.86;34.26
20160;BME280;50187;50.492;12.134;2023-05-09T12:41:05;97452.13;;;22.86;34.15
20160;BME280;50187;50.492;12.134;2023-05-09T12:43:47;97445.22;;;22.83;34.64
20160;BME280;50187;50.492;12.134;2023-05-09T12:46:18;97465.22;;;22.82;34.55
20160;BME280;50187;50.492;12.134;2023-05-09T12:48:45;97434.19;;;22.61;34.41
20160;BME280;50187;50.492;12.134;2023-05-09T12:51:17;97437.59;;;22.78;34.45
20160;BME280;50187;50.492;12.134;2023-05-09T12:53:45;97418.78;;;22.62;32.49
20160;BME280;50187;50.492;12.134;2023-05-09T12:56:19;97434.03;;;22.32;28.37
20160;BME280;50187;50.492;12.134;2023-05-09T12:58:52;97423.88;;;22.02;27.84
20160;BME280;50187;50.492;12.134;2023-05-09T13:01:27;97424.84;;;21.86;27.43
20160;BME280;50187;50.492;12.134;2023-05-09T13:04:02;97406.53;;;21.88;27.85
20160;BME280;50187;50.492;12.134;2023-05-09T13:06:29;97407.91;;;21.84;27.75
20160;BME280;50187;50.492;12.134;2023-05-09T13:09:01;97405.66;;;21.65;26.30